createdAt,value
2022-08-18T00:04:55.355Z,19.83
2022-08-18T00:10:01.498Z,19.48
2022-08-18T00:15:07.085Z,20.73
2022-08-18T00:20:15.686Z,19.77
2022-08-18T00:25:19.683Z,18.67
2022-08-18T00:30:22.841Z,24.20
2022-08-18T00:35:31.026Z,20.40
2022-08-18T00:40:49.043Z,20.67
2022-08-18T00:45:51.800Z,20.35
2022-08-18T00:50:57.919Z,25.48
2022-08-18T00:56:20.696Z,23.90
2022-08-18T01:01:25.963Z,25.83
2022-08-18T01:06:33.331Z,29.02
2022-08-18T01:11:38.314Z,30.00
2022-08-18T01:16:59.371Z,26.55
2022-08-18T01:22:12.268Z,28.75
2022-08-18T01:27:18.506Z,37.67
2022-08-18T01:32:23.818Z,33.22
2022-08-18T01:37:26.500Z,32.38
2022-08-18T01:42:29.204Z,30.17
2022-08-18T01:47:47.102Z,28.42
2022-08-18T01:52:52.700Z,31.60
2022-08-18T01:57:56.205Z,33.67
2022-08-18T02:03:02.656Z,36.50
2022-08-18T02:08:06.530Z,40.80
2022-08-18T02:13:09.384Z,37.60
2022-08-18T02:18:25.738Z,46.03
2022-08-18T02:23:52.184Z,35.92
2022-08-18T02:28:56.391Z,37.75
2022-08-18T02:33:59.817Z,37.88
2022-08-18T02:39:02.274Z,38.60
2022-08-18T02:44:05.027Z,36.20
2022-08-18T02:49:08.328Z,38.10
2022-08-18T02:54:11.708Z,32.42
2022-08-18T02:59:16.875Z,32.47
2022-08-18T03:04:30.031Z,34.25
2022-08-18T03:09:34.489Z,33.50
2022-08-18T03:14:40.230Z,31.83
2022-08-18T03:19:45.244Z,32.05
2022-08-18T03:29:53.733Z,39.63
2022-08-18T03:34:56.217Z,39.17
2022-08-18T03:39:58.654Z,34.50
2022-08-18T03:45:01.285Z,31.13
2022-08-18T03:50:15.600Z,32.00
2022-08-18T03:55:18.161Z,32.58
2022-08-18T04:00:20.742Z,32.28
2022-08-18T04:05:23.253Z,30.98
2022-08-18T04:10:25.984Z,37.05
2022-08-18T04:15:28.434Z,30.10
2022-08-18T04:20:33.956Z,30.52
2022-08-18T04:25:36.359Z,30.13
2022-08-18T04:30:38.826Z,27.73
2022-08-18T04:35:41.656Z,26.42
2022-08-18T04:40:44.140Z,27.35
2022-08-18T04:45:46.788Z,25.35
2022-08-18T04:50:49.326Z,24.38
2022-08-18T04:55:53.684Z,25.65
2022-08-18T05:01:01.481Z,25.25
2022-08-18T05:06:05.810Z,23.35
2022-08-18T05:11:09.564Z,22.08
2022-08-18T05:16:18.031Z,22.25
2022-08-18T05:21:27.565Z,23.35
2022-08-18T05:31:51.190Z,25.08
2022-08-18T05:37:08.766Z,23.83
2022-08-18T05:42:19.669Z,23.02
2022-08-18T05:47:29.103Z,23.60
2022-08-18T05:52:44.879Z,24.27
2022-08-18T05:57:57.383Z,23.35
2022-08-18T06:03:13.346Z,25.08
2022-08-18T06:08:17.215Z,39.63
2022-08-18T06:13:20.687Z,27.58
2022-08-18T06:18:35.791Z,19.58
2022-08-18T06:23:55.999Z,19.38
2022-08-18T06:29:25.243Z,17.67
2022-08-18T06:34:42.905Z,21.88
2022-08-18T06:44:51.981Z,18.15
2022-08-18T06:50:15.737Z,19.83
2022-08-18T06:55:19.771Z,20.58
2022-08-18T07:00:25.869Z,21.60
2022-08-18T07:05:33.363Z,16.98
2022-08-18T07:10:40.307Z,17.88
2022-08-18T07:15:45.477Z,18.20
2022-08-18T07:20:54.149Z,17.40
2022-08-18T07:26:02.122Z,24.35
2022-08-18T07:31:35.383Z,20.10
2022-08-18T07:36:47.730Z,18.52
2022-08-18T07:41:57.570Z,20.90
2022-08-18T07:47:07.057Z,16.20
2022-08-18T07:52:44.248Z,20.52
2022-08-18T07:57:43.323Z,14.65
2022-08-18T08:03:01.950Z,16.48
2022-08-18T08:08:21.442Z,14.15
2022-08-18T08:13:56.774Z,17.55
2022-08-18T08:19:22.006Z,15.82
2022-08-18T08:24:44.591Z,15.02
2022-08-18T08:29:55.786Z,18.02
2022-08-18T08:35:03.086Z,16.10
2022-08-18T08:45:21.195Z,12.65
2022-08-18T08:50:27.566Z,12.70
2022-08-18T08:55:36.895Z,12.70
2022-08-18T09:06:00.747Z,15.10
2022-08-18T09:11:27.501Z,12.07
2022-08-18T09:17:08.979Z,10.63
2022-08-18T09:22:38.100Z,10.15
2022-08-18T09:28:09.770Z,13.95
2022-08-18T09:33:26.354Z,11.18
2022-08-18T09:38:50.005Z,10.73
2022-08-18T09:44:17.703Z,10.27
2022-08-18T09:49:23.990Z,9.63
2022-08-18T09:54:31.727Z,11.50
2022-08-18T09:59:35.095Z,12.40
2022-08-18T10:04:51.466Z,10.90
2022-08-18T10:10:59.444Z,10.45
2022-08-18T10:15:35.596Z,9.95
2022-08-18T10:20:41.331Z,12.20
2022-08-18T10:25:48.808Z,24.13
2022-08-18T10:31:06.306Z,11.37
2022-08-18T10:36:51.016Z,10.57
2022-08-18T10:42:06.279Z,11.65
2022-08-18T10:47:12.080Z,10.05
2022-08-18T10:52:47.253Z,11.27
2022-08-18T10:58:28.031Z,32.35
2022-08-18T11:03:51.604Z,18.88
2022-08-18T11:09:00.574Z,9.70
2022-08-18T11:14:13.979Z,10.88
2022-08-18T11:19:18.057Z,19.15
2022-08-18T11:24:31.694Z,12.57
2022-08-18T11:29:35.387Z,8.32
2022-08-18T11:34:51.886Z,10.30
2022-08-18T11:39:58.134Z,16.90
2022-08-18T11:45:24.888Z,73.45
2022-08-18T11:50:30.840Z,11.80
2022-08-18T11:55:34.506Z,38.72
2022-08-18T12:01:03.788Z,76.45
2022-08-18T12:06:19.086Z,112.57
2022-08-18T12:11:31.411Z,44.78
2022-08-18T12:16:37.543Z,119.65
2022-08-18T12:21:45.130Z,67.65
2022-08-18T12:26:48.647Z,13.02
2022-08-18T12:31:55.886Z,40.15
2022-08-18T12:37:01.285Z,22.83
2022-08-18T12:42:03.695Z,10.52
2022-08-18T12:47:14.304Z,15.23
2022-08-18T12:52:17.289Z,9.60
2022-08-18T12:57:51.682Z,17.08
2022-08-18T13:02:49.364Z,22.20
2022-08-18T13:07:52.390Z,32.55
2022-08-18T13:12:55.163Z,29.38
2022-08-18T13:17:59.232Z,18.08
2022-08-18T13:23:01.711Z,28.75
2022-08-18T13:28:04.403Z,23.50
2022-08-18T13:33:57.121Z,13.70
2022-08-18T13:38:30.221Z,5.85
2022-08-18T13:43:37.812Z,9.43
2022-08-18T13:48:42.105Z,21.13
2022-08-18T13:53:57.623Z,13.73
2022-08-18T13:59:01.727Z,6.82
2022-08-18T14:04:12.719Z,5.85
2022-08-18T14:09:20.023Z,7.55
2022-08-18T14:14:38.036Z,6.10
2022-08-18T14:19:59.408Z,8.82
2022-08-18T14:25:22.870Z,6.45
2022-08-18T14:30:25.607Z,6.15
2022-08-18T14:35:33.818Z,6.43
2022-08-18T14:40:45.635Z,5.65
2022-08-18T14:45:49.181Z,6.00
2022-08-18T14:50:54.778Z,6.57
2022-08-18T14:55:59.890Z,6.45
2022-08-18T15:01:08.289Z,6.28
2022-08-18T15:06:16.875Z,4.95
2022-08-18T15:16:31.646Z,8.75
2022-08-18T15:21:56.440Z,15.00
2022-08-18T15:27:05.523Z,8.82
2022-08-18T15:32:10.577Z,8.45
2022-08-18T15:37:13.118Z,7.78
2022-08-18T15:42:15.656Z,6.05
2022-08-18T15:47:20.983Z,5.55
2022-08-18T15:52:27.675Z,5.70
2022-08-18T15:57:39.851Z,5.33
2022-08-18T16:02:44.507Z,7.25
2022-08-18T16:07:51.854Z,4.43
2022-08-18T16:12:55.171Z,10.20
2022-08-18T16:17:57.600Z,8.25
2022-08-18T16:23:00.830Z,5.10
2022-08-18T16:28:03.535Z,6.97
2022-08-18T16:33:07.214Z,5.60
2022-08-18T16:38:11.140Z,5.70
2022-08-18T16:43:14.969Z,5.63
2022-08-18T16:48:17.548Z,5.55
2022-08-18T16:53:20.022Z,6.32
2022-08-18T16:58:40.849Z,6.15
2022-08-18T17:04:02.012Z,4.60
2022-08-18T17:09:10.160Z,5.70
2022-08-18T17:14:12.827Z,7.72
2022-08-18T17:19:15.306Z,5.97
2022-08-18T17:24:18.539Z,11.90
2022-08-18T17:29:44.170Z,17.73
2022-08-18T17:34:51.776Z,9.73
2022-08-18T17:40:10.240Z,10.55
2022-08-18T17:45:22.017Z,7.65
2022-08-18T17:50:47.926Z,8.57
2022-08-18T17:55:53.434Z,8.10
2022-08-18T18:00:55.903Z,9.55
2022-08-18T18:06:05.687Z,9.55
2022-08-18T18:11:12.050Z,63.65
2022-08-18T18:16:22.097Z,102.65
2022-08-18T18:22:00.720Z,127.00
2022-08-18T18:26:49.213Z,26.08
2022-08-18T18:32:00.945Z,12.73
2022-08-18T18:37:03.563Z,28.60
2022-08-18T18:42:17.659Z,13.10
2022-08-18T18:47:32.352Z,23.77
2022-08-18T18:52:56.557Z,15.38
2022-08-18T18:58:17.551Z,8.13
2022-08-18T19:03:27.862Z,8.65
2022-08-18T19:08:36.226Z,7.93
2022-08-18T19:13:43.170Z,13.25
2022-08-18T19:19:35.398Z,9.68
2022-08-18T19:29:30.005Z,11.02
2022-08-18T19:34:37.636Z,10.63
2022-08-18T19:40:01.379Z,9.38
2022-08-18T19:45:42.271Z,11.45
2022-08-18T19:50:50.748Z,10.20
2022-08-18T19:56:04.987Z,16.27
2022-08-18T20:01:21.050Z,9.05
2022-08-18T20:06:48.375Z,10.48
2022-08-18T20:12:23.206Z,12.50
2022-08-18T20:17:27.115Z,11.20
2022-08-18T20:22:39.838Z,13.20
2022-08-18T20:27:44.924Z,12.05
2022-08-18T20:33:07.151Z,11.70
2022-08-18T20:38:15.615Z,13.05
2022-08-18T20:43:32.987Z,16.45
2022-08-18T20:48:38.010Z,11.68
2022-08-18T20:53:53.167Z,11.18
2022-08-18T20:59:08.683Z,12.00
2022-08-18T21:04:11.720Z,12.18
2022-08-18T21:09:18.738Z,14.73
2022-08-18T21:14:29.780Z,13.88
2022-08-18T21:19:41.346Z,16.58
2022-08-18T21:24:49.913Z,12.55
2022-08-18T21:29:53.530Z,15.45
2022-08-18T21:34:56.267Z,20.02
2022-08-18T21:40:01.008Z,14.95
2022-08-18T21:45:03.533Z,15.27
2022-08-18T21:50:18.167Z,13.32
2022-08-18T21:55:26.792Z,15.75
2022-08-18T22:00:34.089Z,12.93
2022-08-18T22:05:58.849Z,17.23
2022-08-18T22:12:01.279Z,13.02
2022-08-18T22:22:41.860Z,14.13
2022-08-18T22:27:49.779Z,15.32
2022-08-18T22:32:52.686Z,16.67
2022-08-18T22:37:55.262Z,24.65
2022-08-18T22:42:58.427Z,17.95
2022-08-18T22:48:01.354Z,18.05
2022-08-18T22:53:03.991Z,23.13
2022-08-18T22:58:06.399Z,17.67
2022-08-18T23:03:11.837Z,20.25
2022-08-18T23:08:14.534Z,17.48
2022-08-18T23:13:18.101Z,19.23
2022-08-18T23:18:22.484Z,17.90
2022-08-18T23:23:26.195Z,18.23
2022-08-18T23:28:29.019Z,18.08
2022-08-18T23:33:32.470Z,19.98
2022-08-18T23:38:38.365Z,17.83
2022-08-18T23:43:42.244Z,19.13
2022-08-18T23:48:49.705Z,16.33
2022-08-18T23:53:54.275Z,19.73
2022-08-18T23:58:57.412Z,16.13
